Time;durP1;ratioP1;P1;durP2;ratioP2;P2;SDS_P1;SDS_P2;PMS_P1;PMS_P2;Temp;Humidity;BMP_temperature;BMP_pressure;BME280_temperature;BME280_humidity;BME280_pressure;Samples;Min_cycle;Max_cycle;Signal;HPM_P1;HPM_P2
2023/06/05 07:40:30;;;;;;;6.05;1.33;;;16.80;77.30;;;;;;6286841;22;20057;-71
2023/06/05 07:42:57;;;;;;;7.18;1.52;;;16.80;78.00;;;;;;6302411;22;20011;-69
2023/06/05 07:45:25;;;;;;;2.60;1.35;;;16.80;78.40;;;;;;6302839;22;20007;-67
2023/06/05 07:47:52;;;;;;;4.75;1.50;;;16.80;78.30;;;;;;6275793;22;20007;-67
2023/06/05 07:50:20;;;;;;;7.95;1.75;;;16.80;78.20;;;;;;6302120;22;20330;-67
2023/06/05 07:52:47;;;;;;;4.30;1.33;;;16.70;78.00;;;;;;6301177;22;20007;-67
2023/06/05 07:55:15;;;;;;;8.52;1.50;;;16.70;77.80;;;;;;6302412;22;20401;-67
2023/06/05 07:57:42;;;;;;;3.67;1.27;;;16.80;77.60;;;;;;6300851;22;20084;-67
2023/06/05 08:00:10;;;;;;;5.97;1.40;;;16.70;77.70;;;;;;6300946;22;20398;-67
2023/06/05 08:02:38;;;;;;;5.30;1.42;;;16.80;77.40;;;;;;6302737;22;20319;-67
2023/06/05 08:05:06;;;;;;;5.50;1.42;;;16.70;76.70;;;;;;6303145;22;20078;-67
2023/06/05 08:07:33;;;;;;;8.25;1.50;;;16.80;76.60;;;;;;6302776;22;20029;-67
2023/06/05 08:10:01;;;;;;;6.22;1.20;;;16.80;76.10;;;;;;6302181;22;20013;-67
2023/06/05 08:12:28;;;;;;;5.13;1.45;;;16.80;76.00;;;;;;6302849;22;20011;-67
2023/06/05 08:14:56;;;;;;;5.72;1.75;;;16.80;75.30;;;;;;6300727;22;20010;-67
2023/06/05 08:17:23;;;;;;;5.25;1.60;;;16.80;74.80;;;;;;6302251;22;20003;-67
2023/06/05 08:19:51;;;;;;;3.47;1.40;;;16.80;74.60;;;;;;6302001;22;20026;-68
2023/06/05 08:22:18;;;;;;;7.28;1.50;;;16.80;74.70;;;;;;6302001;22;19999;-67
2023/06/05 08:24:48;;;;;;;6.53;1.45;;;16.80;73.40;;;;;;6302562;22;20475;-66
2023/06/05 08:27:15;;;;;;;5.03;1.40;;;16.80;73.90;;;;;;6302661;22;20449;-66
2023/06/05 08:29:43;;;;;;;5.30;1.45;;;16.80;73.40;;;;;;6302713;22;20003;-65
2023/06/05 08:32:10;;;;;;;9.50;1.70;;;16.80;73.40;;;;;;6302652;22;20011;-65
2023/06/05 08:34:38;;;;;;;5.28;1.50;;;16.80;72.70;;;;;;6302763;22;20056;-65
2023/06/05 08:37:05;;;;;;;8.40;2.33;;;16.80;72.80;;;;;;6301474;22;20319;-65
2023/06/05 08:39:33;;;;;;;8.20;2.20;;;16.80;72.90;;;;;;6302181;22;20023;-66
2023/06/05 08:42:02;;;;;;;6.60;2.10;;;16.80;72.90;;;;;;6302602;22;20465;-66
2023/06/05 08:44:29;;;;;;;8.70;1.70;;;16.80;72.60;;;;;;6275692;22;20060;-66
2023/06/05 08:47:03;;;;;;;4.78;1.50;;;16.80;72.20;;;;;;6301629;22;20003;-66
2023/06/05 08:49:36;;;;;;;4.88;1.50;;;16.80;71.90;;;;;;6302888;22;20345;-67
2023/06/05 08:52:06;;;;;;;3.50;1.40;;;16.80;72.00;;;;;;6303028;22;20006;-66
2023/06/05 08:54:37;;;;;;;1.70;1.10;;;16.80;71.70;;;;;;6303684;22;20360;-67
2023/06/05 08:57:08;;;;;;;6.50;1.40;;;16.80;71.50;;;;;;6301834;22;20015;-65
2023/06/05 08:59:36;;;;;;;8.77;1.77;;;16.80;71.50;;;;;;6273990;22;20499;-67
2023/06/05 09:02:04;;;;;;;5.32;1.45;;;16.80;71.80;;;;;;6276279;22;20494;-66
2023/06/05 09:04:31;;;;;;;4.47;1.40;;;16.80;71.60;;;;;;6302617;22;20060;-67
2023/06/05 09:06:59;;;;;;;3.40;1.00;;;16.80;71.90;;;;;;6302338;22;20031;-66
2023/06/05 09:09:27;;;;;;;6.35;1.17;;;16.80;72.00;;;;;;6274279;22;20007;-66
2023/06/05 09:12:07;;;;;;;3.40;1.35;;;16.80;72.20;;;;;;6302396;22;20061;-66
2023/06/05 09:14:35;;;;;;;4.85;1.10;;;16.80;72.50;;;;;;6300489;22;20363;-66
2023/06/05 09:17:03;;;;;;;7.38;1.63;;;16.80;72.50;;;;;;6301510;22;20007;-66
2023/06/05 09:19:40;;;;;;;5.40;1.35;;;16.80;72.40;;;;;;6274531;22;20481;-66
2023/06/05 09:22:09;;;;;;;3.53;1.38;;;16.80;72.70;;;;;;6302225;22;20346;-66
2023/06/05 09:24:37;;;;;;;3.42;1.48;;;16.80;73.20;;;;;;6275843;22;20109;-66
2023/06/05 09:27:12;;;;;;;2.03;1.50;;;16.80;73.20;;;;;;6275663;22;20011;-66
2023/06/05 09:29:40;;;;;;;4.70;1.67;;;16.80;73.60;;;;;;6302534;22;20432;-66
2023/06/05 09:32:09;;;;;;;5.32;1.67;;;16.80;73.80;;;;;;6302266;22;20007;-65
2023/06/05 09:34:37;;;;;;;5.07;1.58;;;16.80;74.00;;;;;;6302153;22;20011;-66
2023/06/05 09:37:08;;;;;;;11.10;2.13;;;16.80;74.20;;;;;;6277220;22;20496;-66
2023/06/05 09:39:37;;;;;;;9.32;1.88;;;16.80;73.90;;;;;;6277282;22;20022;-66
2023/06/05 09:42:05;;;;;;;12.35;2.13;;;16.80;74.10;;;;;;6252329;22;20002;-65
2023/06/05 09:44:33;;;;;;;7.72;1.98;;;16.80;74.20;;;;;;6303833;22;20422;-65
2023/06/05 09:47:02;;;;;;;10.32;2.33;;;16.80;74.10;;;;;;6275990;22;20430;-65
2023/06/05 09:49:30;;;;;;;11.07;2.10;;;16.80;74.20;;;;;;6303139;22;20011;-65
2023/06/05 09:52:01;;;;;;;8.23;1.63;;;16.80;74.20;;;;;;6303487;22;20030;-66
2023/06/05 09:54:32;;;;;;;6.32;1.40;;;16.80;74.10;;;;;;6276190;22;20007;-65
2023/06/05 09:57:01;;;;;;;6.40;1.52;;;16.80;74.10;;;;;;6304447;22;20316;-65
2023/06/05 09:59:31;;;;;;;5.90;1.40;;;16.80;73.90;;;;;;6302420;22;20019;-65
2023/06/05 10:02:05;;;;;;;10.20;1.65;;;16.90;73.60;;;;;;6276667;22;20063;-65
2023/06/05 10:04:48;;;;;;;5.15;1.30;;;16.90;73.90;;;;;;6278180;22;20011;-65
2023/06/05 10:07:16;;;;;;;3.67;1.40;;;16.90;73.70;;;;;;6252988;22;20094;-65
2023/06/05 10:09:44;;;;;;;5.78;1.50;;;16.90;73.80;;;;;;6276580;22;20438;-65
2023/06/05 10:12:12;;;;;;;4.10;1.73;;;16.80;73.80;;;;;;6304273;22;20418;-65
2023/06/05 10:14:42;;;;;;;3.80;1.48;;;16.90;74.00;;;;;;6249437;22;20007;-66
2023/06/05 10:17:13;;;;;;;6.38;1.60;;;16.80;74.20;;;;;;6303919;22;20395;-65
2023/06/05 10:19:44;;;;;;;5.30;1.75;;;16.80;74.20;;;;;;6276752;22;20438;-65
2023/06/05 10:22:17;;;;;;;2.92;1.50;;;16.80;74.20;;;;;;6303736;22;20033;-65
2023/06/05 10:24:57;;;;;;;4.35;1.70;;;16.80;74.50;;;;;;6303738;22;20003;-65
2023/06/05 10:27:28;;;;;;;4.68;2.00;;;16.80;74.50;;;;;;6303239;22;20017;-65
2023/06/05 10:30:36;;;;;;;4.07;1.50;;;16.80;74.20;;;;;;6276410;22;20069;-65
2023/06/05 10:33:26;;;;;;;3.38;1.80;;;16.80;74.70;;;;;;6276863;22;20010;-65
2023/06/05 10:36:44;;;;;;;4.83;2.20;;;16.80;74.80;;;;;;6275428;22;19999;-65
2023/06/05 10:39:12;;;;;;;6.40;1.70;;;16.80;75.00;;;;;;6276394;22;20303;-66
2023/06/05 10:41:40;;;;;;;5.22;2.50;;;16.70;75.20;;;;;;6303640;22;20010;-64
2023/06/05 10:44:07;;;;;;;7.70;2.63;;;16.70;75.50;;;;;;6276047;22;20045;-65
2023/06/05 10:46:38;;;;;;;7.10;2.60;;;16.70;75.60;;;;;;6302705;22;20003;-65
2023/06/05 10:49:08;;;;;;;6.28;2.60;;;16.70;75.50;;;;;;6302101;22;20086;-64
2023/06/05 10:51:46;;;;;;;6.72;2.60;;;16.70;75.60;;;;;;6303187;22;20006;-64
2023/06/05 10:54:18;;;;;;;5.85;2.00;;;16.70;75.10;;;;;;6303423;22;20007;-65
2023/06/05 10:56:59;;;;;;;5.43;2.28;;;16.80;74.70;;;;;;6302807;22;20007;-64
2023/06/05 10:59:31;;;;;;;5.30;1.85;;;16.80;74.70;;;;;;6302201;22;20309;-66
2023/06/05 11:04:51;;;;;;;6.53;2.00;;;16.80;74.50;;;;;;6302566;22;20007;-65
2023/06/05 11:07:30;;;;;;;4.35;2.25;;;16.80;74.00;;;;;;6303020;22;20011;-65
2023/06/05 11:10:06;;;;;;;6.70;2.05;;;16.80;74.10;;;;;;6302559;22;20010;-64
2023/06/05 11:12:36;;;;;;;5.03;2.28;;;16.80;73.60;;;;;;6302517;22;20003;-64
2023/06/05 11:15:04;;;;;;;6.18;2.40;;;16.80;73.80;;;;;;6301012;22;20004;-65
2023/06/05 11:17:35;;;;;;;8.05;2.05;;;16.80;73.40;;;;;;6302826;22;20057;-65
2023/06/05 11:20:09;;;;;;;6.50;2.00;;;16.80;73.40;;;;;;6302561;22;20046;-65
2023/06/05 11:22:57;;;;;;;3.75;1.98;;;16.80;73.60;;;;;;6303350;22;20003;-65
2023/06/05 11:25:32;;;;;;;4.05;2.03;;;16.80;73.50;;;;;;6275185;22;20019;-66
2023/06/05 11:28:05;;;;;;;4.38;1.80;;;16.80;73.50;;;;;;6275829;22;20422;-64
2023/06/05 11:30:34;;;;;;;3.60;1.88;;;16.80;73.30;;;;;;6302771;22;20011;-65
2023/06/05 11:33:08;;;;;;;6.78;1.95;;;16.80;73.20;;;;;;6250684;22;20008;-64
2023/06/05 11:35:39;;;;;;;4.88;1.80;;;16.80;73.20;;;;;;6303163;22;20025;-64
2023/06/05 11:38:22;;;;;;;4.70;1.90;;;16.80;73.20;;;;;;6275419;22;20010;-66
2023/06/05 11:40:49;;;;;;;2.72;1.77;;;16.80;73.30;;;;;;6302250;22;20115;-64
2023/06/05 11:43:17;;;;;;;4.30;1.80;;;16.80;73.50;;;;;;6276721;22;20088;-65
2023/06/05 11:46:04;;;;;;;5.10;2.05;;;16.80;73.80;;;;;;6303138;22;20523;-65
2023/06/05 11:48:32;;;;;;;5.40;1.80;;;16.80;74.00;;;;;;6303579;22;20129;-64
2023/06/05 11:51:01;;;;;;;7.70;2.13;;;16.80;74.20;;;;;;6302677;22;20068;-64
2023/06/05 11:53:30;;;;;;;3.28;1.63;;;16.80;74.10;;;;;;6276031;22;20017;-65
2023/06/05 11:58:38;;;;;;;5.88;2.00;;;16.80;74.80;;;;;;6252336;22;20019;-65
2023/06/05 12:01:12;;;;;;;6.78;1.90;;;16.70;75.00;;;;;;6276895;22;20015;-64
2023/06/05 12:03:40;;;;;;;9.50;2.25;;;16.80;74.40;;;;;;6303396;22;19999;-65
2023/06/05 12:06:07;;;;;;;5.05;1.50;;;16.80;74.40;;;;;;6302570;22;20011;-64
2023/06/05 12:08:36;;;;;;;4.57;1.83;;;16.70;74.30;;;;;;6303016;22;19999;-64
2023/06/05 12:11:04;;;;;;;4.40;1.63;;;16.80;74.30;;;;;;6275146;22;20003;-64
2023/06/05 12:13:51;;;;;;;6.32;1.88;;;16.80;74.20;;;;;;6275514;22;20022;-64
2023/06/05 12:16:20;;;;;;;2.72;1.60;;;16.80;74.30;;;;;;6301100;22;20007;-64
2023/06/05 12:18:49;;;;;;;3.07;1.73;;;16.70;74.50;;;;;;6275232;22;20007;-64
2023/06/05 12:21:24;;;;;;;4.95;1.77;;;16.70;74.50;;;;;;6303026;22;20007;-64
2023/06/05 12:23:52;;;;;;;5.72;1.60;;;16.70;74.60;;;;;;6302972;22;20010;-64
2023/06/05 12:26:19;;;;;;;4.45;1.63;;;16.80;74.40;;;;;;6302645;22;20057;-64
2023/06/05 12:28:47;;;;;;;5.88;1.83;;;16.80;74.30;;;;;;6301511;22;20029;-64
2023/06/05 12:31:33;;;;;;;9.18;2.33;;;16.80;74.20;;;;;;6302569;22;20523;-64
2023/06/05 12:34:01;;;;;;;4.05;2.13;;;16.80;74.30;;;;;;6302501;22;20022;-64
2023/06/05 12:36:28;;;;;;;8.10;2.00;;;16.70;74.50;;;;;;6302712;22;20014;-64
2023/06/05 12:38:56;;;;;;;6.18;1.70;;;16.70;74.70;;;;;;6275159;22;20003;-64
2023/06/05 12:41:23;;;;;;;4.68;1.38;;;16.70;74.60;;;;;;6301978;22;20080;-67
2023/06/05 12:44:01;;;;;;;5.22;1.70;;;16.70;74.60;;;;;;6303049;22;20068;-64
2023/06/05 12:46:30;;;;;;;6.00;1.80;;;16.70;74.70;;;;;;6251317;22;20019;-66
2023/06/05 12:48:58;;;;;;;9.20;1.90;;;16.70;74.50;;;;;;6275344;22;20011;-67
2023/06/05 12:51:28;;;;;;;5.07;1.60;;;16.70;74.60;;;;;;6275789;22;20007;-67
2023/06/05 12:53:56;;;;;;;7.47;1.85;;;16.70;74.40;;;;;;6303162;22;20026;-67
2023/06/05 12:56:28;;;;;;;4.63;1.45;;;16.70;74.20;;;;;;6275903;22;20011;-68
2023/06/05 12:58:56;;;;;;;4.32;1.52;;;16.70;74.40;;;;;;6301361;22;20018;-64
2023/06/05 13:01:29;;;;;;;3.28;1.70;;;16.70;74.60;;;;;;6275520;22;20011;-65
2023/06/05 13:03:56;;;;;;;3.72;1.40;;;16.70;74.80;;;;;;6302859;22;20375;-64
2023/06/05 13:06:24;;;;;;;5.38;1.85;;;16.60;75.10;;;;;;6301727;22;20507;-64
2023/06/05 13:08:51;;;;;;;2.33;1.30;;;16.70;75.50;;;;;;6302185;22;20070;-64
2023/06/05 13:11:19;;;;;;;6.72;1.75;;;16.60;75.90;;;;;;6306386;22;20003;-64
2023/06/05 13:13:47;;;;;;;3.85;1.40;;;16.60;76.20;;;;;;6307410;22;20007;-64
2023/06/05 13:16:14;;;;;;;5.47;2.03;;;16.60;76.50;;;;;;6305945;22;20082;-64
2023/06/05 13:18:41;;;;;;;5.05;1.58;;;16.60;76.90;;;;;;6307355;22;20006;-64
2023/06/05 13:21:09;;;;;;;5.20;1.70;;;16.60;77.30;;;;;;6308094;22;20342;-64
2023/06/05 13:23:36;;;;;;;3.78;2.00;;;16.50;77.80;;;;;;6307936;22;20533;-64
2023/06/05 13:26:04;;;;;;;7.25;1.95;;;16.50;77.90;;;;;;6308034;22;20006;-63
2023/06/05 13:28:31;;;;;;;3.15;1.52;;;16.50;78.00;;;;;;6307683;22;20342;-64
2023/06/05 13:30:59;;;;;;;4.85;1.85;;;16.50;78.10;;;;;;6307688;22;20003;-64
2023/06/05 13:33:26;;;;;;;3.45;1.83;;;16.50;78.10;;;;;;6307677;22;20333;-64
2023/06/05 13:35:53;;;;;;;5.57;1.60;;;16.50;78.10;;;;;;6306539;22;20005;-64
2023/06/05 13:38:22;;;;;;;4.55;1.90;;;16.50;78.30;;;;;;6306820;22;20007;-64
2023/06/05 13:40:52;;;;;;;4.47;1.75;;;16.50;78.50;;;;;;6275081;22;20024;-64
2023/06/05 13:43:20;;;;;;;7.75;2.13;;;16.50;78.50;;;;;;6275676;22;20486;-64
2023/06/05 13:45:47;;;;;;;3.78;1.60;;;16.50;78.10;;;;;;6274936;22;20438;-64
2023/06/05 13:48:15;;;;;;;5.28;1.52;;;16.50;78.20;;;;;;6276341;22;20015;-64
2023/06/05 13:50:43;;;;;;;3.60;1.60;;;16.50;77.60;;;;;;6276453;22;20006;-64
2023/06/05 13:53:10;;;;;;;5.97;2.35;;;16.50;77.40;;;;;;6276451;22;20011;-64
2023/06/05 13:55:39;;;;;;;5.43;1.67;;;16.50;77.30;;;;;;6276893;22;20430;-64
2023/06/05 13:58:07;;;;;;;3.05;1.65;;;16.50;77.30;;;;;;6276626;22;20086;-64
2023/06/05 14:00:34;;;;;;;4.78;1.70;;;16.50;77.30;;;;;;6274453;22;20026;-64
2023/06/05 14:03:02;;;;;;;4.55;1.60;;;16.50;77.30;;;;;;6276153;22;19995;-64
2023/06/05 14:05:30;;;;;;;4.68;1.40;;;16.50;77.40;;;;;;6276787;22;19999;-64
2023/06/05 14:07:58;;;;;;;4.50;1.55;;;16.50;77.30;;;;;;6276891;22;20004;-64
2023/06/05 14:10:25;;;;;;;5.10;2.00;;;16.50;77.50;;;;;;6276507;22;20465;-64
2023/06/05 14:12:53;;;;;;;5.03;1.85;;;16.50;77.60;;;;;;6275003;22;20057;-64
2023/06/05 14:15:21;;;;;;;5.10;1.80;;;16.50;77.60;;;;;;6275242;22;20004;-64
2023/06/05 14:17:50;;;;;;;3.50;1.70;;;16.50;77.50;;;;;;6275691;22;20007;-64
2023/06/05 14:20:18;;;;;;;6.68;1.70;;;16.50;77.40;;;;;;6275925;22;20012;-64
2023/06/05 14:22:46;;;;;;;3.47;1.73;;;16.50;77.30;;;;;;6276665;22;20000;-64
2023/06/05 14:25:14;;;;;;;3.47;1.45;;;16.50;77.20;;;;;;6274235;22;20010;-64
2023/06/05 14:27:41;;;;;;;3.97;1.70;;;16.50;77.40;;;;;;6276330;22;20027;-64
2023/06/05 14:30:09;;;;;;;7.90;2.03;;;16.50;77.50;;;;;;6275249;22;20054;-64
2023/06/05 14:32:36;;;;;;;4.00;1.90;;;16.50;77.60;;;;;;6275320;22;20423;-64
2023/06/05 14:35:04;;;;;;;6.57;1.65;;;16.50;77.70;;;;;;6274747;22;20333;-64
2023/06/05 14:37:31;;;;;;;5.85;1.75;;;16.50;78.20;;;;;;6276509;22;20071;-64
2023/06/05 14:39:59;;;;;;;5.85;1.83;;;16.40;78.80;;;;;;6273965;22;20023;-64
2023/06/05 14:42:26;;;;;;;6.85;2.08;;;16.30;79.40;;;;;;6276755;22;20004;-64
2023/06/05 14:44:54;;;;;;;4.40;2.00;;;16.30;79.90;;;;;;6275950;22;20484;-64
2023/06/05 14:47:22;;;;;;;6.80;2.00;;;16.20;80.10;;;;;;6275274;22;20080;-64
2023/06/05 14:49:49;;;;;;;7.13;2.13;;;16.20;80.60;;;;;;6276335;22;20042;-64
2023/06/05 14:52:17;;;;;;;5.03;2.03;;;16.20;80.70;;;;;;6276017;22;20073;-64
2023/06/05 14:54:45;;;;;;;3.65;2.00;;;16.20;81.20;;;;;;6274398;22;20008;-64
2023/06/05 14:57:13;;;;;;;6.75;2.08;;;16.10;81.30;;;;;;6275877;22;20062;-64
2023/06/05 14:59:40;;;;;;;7.68;1.95;;;16.20;81.50;;;;;;6274987;22;20327;-64
2023/06/05 15:02:08;;;;;;;4.45;1.90;;;16.10;81.50;;;;;;6248384;22;20011;-64
2023/06/05 15:04:35;;;;;;;5.38;2.15;;;16.10;82.00;;;;;;6276364;22;20004;-64
2023/06/05 15:07:03;;;;;;;6.97;1.70;;;15.90;82.40;;;;;;6275951;22;20003;-64
2023/06/05 15:09:30;;;;;;;3.40;1.40;;;15.80;82.90;;;;;;6274725;22;20038;-64
2023/06/05 15:11:59;;;;;;;7.10;2.30;;;15.80;83.20;;;;;;6274305;22;20308;-64
2023/06/05 15:14:27;;;;;;;5.80;1.80;;;15.70;83.50;;;;;;6276278;22;20315;-64
2023/06/05 15:16:54;;;;;;;4.80;1.65;;;15.70;83.60;;;;;;6276145;22;20014;-64
2023/06/05 15:19:22;;;;;;;3.08;1.45;;;15.80;83.60;;;;;;6274978;22;20540;-64
2023/06/05 15:21:49;;;;;;;7.38;1.77;;;15.80;83.50;;;;;;6275611;22;20024;-64
2023/06/05 15:24:17;;;;;;;5.70;1.52;;;15.80;83.70;;;;;;6275299;22;20003;-64
2023/06/05 15:26:44;;;;;;;5.93;1.77;;;15.80;83.60;;;;;;6274256;22;20015;-64
2023/06/05 15:29:12;;;;;;;3.25;1.25;;;15.90;83.70;;;;;;6274191;22;20011;-64
2023/06/05 15:31:39;;;;;;;5.63;1.90;;;15.80;83.70;;;;;;6275950;22;20010;-64
2023/06/05 15:34:06;;;;;;;4.82;1.45;;;15.90;83.60;;;;;;6274088;22;20004;-64
2023/06/05 15:36:34;;;;;;;7.13;1.83;;;15.90;83.60;;;;;;6275763;22;20003;-64
2023/06/05 15:39:02;;;;;;;4.22;1.45;;;15.90;83.40;;;;;;6275521;22;20015;-67
2023/06/05 15:41:30;;;;;;;6.88;1.48;;;15.90;83.70;;;;;;6248976;22;20480;-68
2023/06/05 15:43:58;;;;;;;5.80;1.65;;;15.90;84.00;;;;;;6275096;22;20000;-67
2023/06/05 15:46:25;;;;;;;5.60;1.25;;;15.90;84.50;;;;;;6275399;22;20026;-67
2023/06/05 15:48:52;;;;;;;3.90;1.27;;;15.80;85.00;;;;;;6275202;22;20030;-68
2023/06/05 15:51:20;;;;;;;2.72;1.23;;;15.80;85.50;;;;;;6275068;22;20008;-68
2023/06/05 15:53:47;;;;;;;4.28;1.10;;;15.70;86.50;;;;;;6276204;22;20054;-68
2023/06/05 15:56:16;;;;;;;5.68;1.23;;;15.60;87.20;;;;;;6275222;22;20393;-67
2023/06/05 15:58:43;;;;;;;4.68;1.30;;;15.60;87.90;;;;;;6275857;22;20007;-68
2023/06/05 16:01:10;;;;;;;2.70;1.10;;;15.50;88.40;;;;;;6275458;22;20041;-68
2023/06/05 16:03:38;;;;;;;6.90;1.20;;;15.50;88.60;;;;;;6274934;22;20004;-68
2023/06/05 16:06:06;;;;;;;5.00;1.48;;;15.40;88.90;;;;;;6275816;22;20000;-67
2023/06/05 16:08:33;;;;;;;3.88;1.00;;;15.40;88.90;;;;;;6223897;22;20335;-67
2023/06/05 16:11:01;;;;;;;3.05;0.98;;;15.30;89.10;;;;;;6275673;22;20004;-68
2023/06/05 16:13:29;;;;;;;3.80;0.95;;;15.40;89.40;;;;;;6274610;22;20011;-68
2023/06/05 16:15:56;;;;;;;4.43;1.35;;;15.30;89.50;;;;;;6275124;22;20003;-68
2023/06/05 16:18:24;;;;;;;2.88;0.93;;;15.40;89.50;;;;;;6249030;22;20003;-68
2023/06/05 16:20:51;;;;;;;2.95;1.08;;;15.40;89.60;;;;;;6275507;22;20007;-68
2023/06/05 16:23:19;;;;;;;6.30;1.17;;;15.30;89.70;;;;;;6275093;22;20000;-68
2023/06/05 16:25:46;;;;;;;4.05;1.08;;;15.30;89.80;;;;;;6275716;22;20007;-68
2023/06/05 16:28:13;;;;;;;2.92;0.90;;;15.30;89.90;;;;;;6273755;22;20004;-68
2023/06/05 16:30:41;;;;;;;3.83;1.17;;;15.30;89.90;;;;;;6273903;22;20031;-68
2023/06/05 16:33:08;;;;;;;4.80;0.90;;;15.30;90.00;;;;;;6274234;22;20396;-68
2023/06/05 16:35:36;;;;;;;5.45;1.55;;;15.30;90.00;;;;;;6275357;22;20000;-68
2023/06/05 16:38:05;;;;;;;3.92;1.00;;;15.30;90.00;;;;;;6275603;22;20008;-67
2023/06/05 16:40:32;;;;;;;4.70;1.23;;;15.20;90.00;;;;;;6223689;22;20015;-67
2023/06/05 16:42:59;;;;;;;3.97;1.20;;;15.30;90.00;;;;;;6275219;22;20004;-68
2023/06/05 16:45:27;;;;;;;3.67;1.00;;;15.20;89.90;;;;;;6277439;22;20000;-68
2023/06/05 16:47:54;;;;;;;3.13;1.20;;;15.20;90.00;;;;;;6277467;22;20075;-71
2023/06/05 16:50:22;;;;;;;3.95;1.40;;;15.20;90.50;;;;;;6274863;22;20035;-70
2023/06/05 16:52:49;;;;;;;4.93;1.52;;;15.10;90.60;;;;;;6277125;22;19999;-70
2023/06/05 16:55:16;;;;;;;3.72;1.20;;;15.00;90.80;;;;;;6250000;22;20469;-71
2023/06/05 16:57:45;;;;;;;6.13;1.35;;;15.00;91.00;;;;;;6277046;22;20006;-70
2023/06/05 17:00:13;;;;;;;7.22;1.60;;;15.00;91.40;;;;;;6276592;22;20012;-71
2023/06/05 17:02:42;;;;;;;3.80;1.23;;;14.90;91.70;;;;;;6250308;22;19999;-70
2023/06/05 17:05:09;;;;;;;2.97;1.17;;;15.00;91.80;;;;;;6278088;22;20012;-68
2023/06/05 17:07:37;;;;;;;3.78;1.10;;;14.90;92.30;;;;;;6277693;22;20023;-68
2023/06/05 17:10:05;;;;;;;2.90;1.10;;;14.80;92.40;;;;;;6276318;22;20008;-68
2023/06/05 17:12:32;;;;;;;1.35;0.85;;;14.80;92.60;;;;;;6249291;22;20053;-69
2023/06/05 17:14:59;;;;;;;3.78;1.00;;;14.80;92.60;;;;;;6250550;22;20004;-68
2023/06/05 17:17:27;;;;;;;3.38;1.10;;;14.80;92.60;;;;;;6277476;22;19999;-69
2023/06/05 17:19:54;;;;;;;4.97;1.20;;;14.80;92.50;;;;;;6276812;22;20079;-68
2023/06/05 17:22:22;;;;;;;3.17;1.10;;;14.70;92.60;;;;;;6249914;22;20004;-69
2023/06/05 17:24:49;;;;;;;3.65;1.02;;;14.70;92.70;;;;;;6277316;22;20002;-68
2023/06/05 17:27:17;;;;;;;1.58;0.80;;;14.80;92.80;;;;;;6277412;22;20010;-68
2023/06/05 17:29:44;;;;;;;3.25;1.10;;;14.70;92.90;;;;;;6249838;22;20066;-68
2023/06/05 17:32:12;;;;;;;2.80;0.75;;;14.80;93.00;;;;;;6276359;22;20035;-70
2023/06/05 17:34:39;;;;;;;1.73;0.80;;;14.70;93.10;;;;;;6249685;22;20385;-69
2023/06/05 17:37:07;;;;;;;2.35;0.70;;;14.70;93.00;;;;;;6276371;22;20334;-69
2023/06/05 17:39:34;;;;;;;3.80;1.00;;;14.70;93.30;;;;;;6275755;22;20375;-69
2023/06/05 17:42:07;;;;;;;1.88;0.77;;;14.70;93.20;;;;;;6276496;22;20411;-69
2023/06/05 17:44:35;;;;;;;2.90;0.90;;;14.70;93.30;;;;;;6276410;22;20070;-68
2023/06/05 17:47:02;;;;;;;2.65;0.90;;;14.70;93.40;;;;;;6277087;22;20020;-69
2023/06/05 17:49:30;;;;;;;1.92;0.63;;;14.70;93.40;;;;;;6249807;22;20015;-68
2023/06/05 17:51:57;;;;;;;2.42;0.80;;;14.70;93.50;;;;;;6276620;22;20372;-68
2023/06/05 17:54:25;;;;;;;3.20;0.80;;;14.70;93.60;;;;;;6276237;22;20049;-68
2023/06/05 17:56:54;;;;;;;4.65;0.70;;;14.70;93.50;;;;;;6276307;22;20006;-68
2023/06/05 17:59:22;;;;;;;2.13;0.90;;;14.70;93.50;;;;;;6249799;22;20015;-68
2023/06/05 18:01:52;;;;;;;1.95;0.82;;;14.70;93.50;;;;;;6276676;22;20008;-69
2023/06/05 18:04:19;;;;;;;;;;;14.70;93.60;;;;;;6250211;22;20431;-68
2023/06/05 18:06:47;;;;;;;0.50;0.50;;;14.70;93.50;;;;;;6276113;22;19989;-69
2023/06/05 18:09:14;;;;;;;2.75;0.63;;;14.70;93.50;;;;;;6275636;22;20497;-68
2023/06/05 18:11:45;;;;;;;2.28;0.70;;;14.70;93.50;;;;;;6276194;22;20007;-68
2023/06/05 18:14:12;;;;;;;1.13;0.60;;;14.70;93.50;;;;;;6275964;22;20004;-68
2023/06/05 18:16:40;;;;;;;2.30;0.90;;;14.70;93.50;;;;;;6276611;22;20004;-68
2023/06/05 18:19:08;;;;;;;1.52;0.60;;;14.80;93.50;;;;;;6276463;22;20006;-68
2023/06/05 18:21:37;;;;;;;2.92;0.70;;;14.80;93.40;;;;;;6275252;22;20004;-68
2023/06/05 18:24:04;;;;;;;2.10;0.60;;;14.80;93.50;;;;;;6249751;22;19996;-69
2023/06/05 18:26:32;;;;;;;1.50;0.68;;;14.90;93.40;;;;;;6249430;22;20453;-68
2023/06/05 18:28:59;;;;;;;1.42;0.73;;;14.90;93.10;;;;;;6276700;22;20018;-68
2023/06/05 18:31:27;;;;;;;2.30;0.40;;;14.90;93.20;;;;;;6275895;22;20004;-70
2023/06/05 18:33:55;;;;;;;3.20;0.57;;;14.90;93.00;;;;;;6275782;22;20426;-68
2023/06/05 18:36:22;;;;;;;3.25;0.82;;;14.90;93.00;;;;;;6276224;22;20110;-68
2023/06/05 18:38:50;;;;;;;2.40;0.77;;;15.00;92.90;;;;;;6276515;22;20023;-68
2023/06/05 18:41:18;;;;;;;3.05;1.00;;;15.00;93.10;;;;;;6249921;22;20090;-68
2023/06/05 18:43:45;;;;;;;1.65;0.82;;;15.00;93.10;;;;;;6275254;22;19999;-69
2023/06/05 18:46:14;;;;;;;2.05;0.95;;;15.10;92.90;;;;;;6275638;22;20000;-69
2023/06/05 18:48:42;;;;;;;1.10;0.65;;;15.00;92.80;;;;;;6276478;22;19996;-68
2023/06/05 18:51:10;;;;;;;1.50;0.70;;;15.00;92.70;;;;;;6247956;22;20050;-69
2023/06/05 18:53:39;;;;;;;1.38;0.77;;;15.10;92.80;;;;;;6275463;22;20016;-68
2023/06/05 18:56:07;;;;;;;3.63;0.80;;;15.00;92.70;;;;;;6275200;22;20006;-68
2023/06/05 18:58:34;;;;;;;1.95;0.73;;;15.00;92.70;;;;;;6249388;22;20075;-68
2023/06/05 19:01:02;;;;;;;2.28;0.73;;;15.00;92.70;;;;;;6275435;22;20469;-68
2023/06/05 19:03:29;;;;;;;2.15;0.80;;;15.00;92.60;;;;;;6275434;22;20031;-68
2023/06/05 19:05:56;;;;;;;3.50;0.75;;;15.00;92.60;;;;;;6274461;22;20012;-68
2023/06/05 19:08:24;;;;;;;2.30;0.90;;;15.00;92.60;;;;;;6248483;22;20064;-68
2023/06/05 19:10:52;;;;;;;1.92;0.80;;;14.90;92.40;;;;;;6248794;22;20023;-68
2023/06/05 19:13:20;;;;;;;2.70;0.63;;;14.90;92.20;;;;;;6248733;22;20197;-68
2023/06/05 19:15:47;;;;;;;2.28;0.80;;;14.90;92.40;;;;;;6249230;22;20003;-68
2023/06/05 19:18:14;;;;;;;1.20;0.30;;;14.80;92.40;;;;;;6275100;22;20038;-68
2023/06/05 19:20:42;;;;;;;1.67;0.45;;;14.90;92.40;;;;;;6248862;22;20024;-68
2023/06/05 19:23:09;;;;;;;0.75;0.40;;;14.90;92.10;;;;;;6249452;22;20003;-67
2023/06/05 19:25:37;;;;;;;0.30;0.30;;;14.80;92.10;;;;;;6248983;22;20028;-68
2023/06/05 19:28:04;;;;;;;1.02;0.40;;;14.80;92.10;;;;;;6275591;22;20030;-68
2023/06/05 19:30:32;;;;;;;2.13;0.65;;;14.80;92.20;;;;;;6276029;22;20003;-68
2023/06/05 19:33:00;;;;;;;0.63;0.35;;;14.80;92.20;;;;;;6275954;22;20006;-69
2023/06/05 19:35:28;;;;;;;0.68;0.52;;;14.90;92.20;;;;;;6275777;22;20003;-68
2023/06/05 19:37:55;;;;;;;0.77;0.40;;;14.80;92.20;;;;;;6274788;22;20071;-69
2023/06/05 19:40:23;;;;;;;0.55;0.40;;;14.80;92.30;;;;;;6275199;22;20019;-69
2023/06/05 19:42:50;;;;;;;0.30;0.30;;;14.90;92.20;;;;;;6249194;22;20007;-69
2023/06/05 19:45:17;;;;;;;0.98;0.55;;;14.90;92.30;;;;;;6276231;22;20006;-69
2023/06/05 19:47:45;;;;;;;0.45;0.40;;;14.90;92.30;;;;;;6274748;22;20074;-68
2023/06/05 19:50:14;;;;;;;0.32;0.30;;;14.80;92.40;;;;;;6246162;22;20012;-68
2023/06/05 19:52:42;;;;;;;0.95;0.45;;;14.80;92.30;;;;;;6276093;22;20024;-68
2023/06/05 19:55:09;;;;;;;0.85;0.32;;;14.80;92.50;;;;;;6275229;22;20053;-68
2023/06/05 19:57:37;;;;;;;0.75;0.47;;;14.90;92.70;;;;;;6274788;22;19999;-68
2023/06/05 20:00:05;;;;;;;1.20;0.45;;;14.90;92.70;;;;;;6274644;22;20007;-69
2023/06/05 20:02:32;;;;;;;2.17;0.70;;;14.80;92.70;;;;;;6275552;22;20022;-69
2023/06/05 20:05:00;;;;;;;0.82;0.40;;;14.90;92.70;;;;;;6275890;22;20136;-68
2023/06/05 20:07:27;;;;;;;2.33;0.65;;;14.80;92.80;;;;;;6274745;22;20011;-68
2023/06/05 20:09:55;;;;;;;0.50;0.50;;;14.80;92.90;;;;;;6275301;22;19999;-68
2023/06/05 20:12:22;;;;;;;0.57;0.32;;;14.80;93.00;;;;;;6275815;22;20008;-68
2023/06/05 20:14:49;;;;;;;1.10;0.50;;;14.80;93.10;;;;;;6248673;22;20003;-68
2023/06/05 20:17:18;;;;;;;1.85;0.55;;;14.80;93.00;;;;;;6275531;22;20014;-68
2023/06/05 20:19:45;;;;;;;1.08;0.73;;;14.80;93.10;;;;;;6275027;22;20456;-68
2023/06/05 20:22:13;;;;;;;2.47;0.65;;;14.90;93.20;;;;;;6275731;22;20004;-68
2023/06/05 20:24:41;;;;;;;2.22;0.70;;;14.90;93.10;;;;;;6248294;22;20367;-68
2023/06/05 20:27:09;;;;;;;1.85;0.63;;;14.90;93.20;;;;;;6274744;22;20004;-68
2023/06/05 20:29:37;;;;;;;1.27;0.80;;;14.90;93.30;;;;;;6274966;22;20000;-68
2023/06/05 20:32:05;;;;;;;0.85;0.50;;;15.00;93.20;;;;;;6275086;22;20491;-68
2023/06/05 20:34:32;;;;;;;0.52;0.50;;;14.90;93.30;;;;;;6275114;22;20002;-68
2023/06/05 20:37:01;;;;;;;2.72;0.60;;;14.90;93.30;;;;;;6275551;22;20026;-68
2023/06/05 20:39:30;;;;;;;0.60;0.60;;;14.90;93.40;;;;;;6274488;22;20015;-68
2023/06/05 20:42:01;;;;;;;0.80;0.70;;;14.90;93.50;;;;;;6275073;22;20370;-69